sensor_id;sensor_type;location;lat;lon;timestamp;P1;durP1;ratioP1;P2;durP2;ratioP2
70487;SDS011;57976;48.174;16.370;2023-02-27T00:01:06;7.60;;;2.60;;
70487;SDS011;57976;48.174;16.370;2023-02-27T00:03:10;7.50;;;2.60;;
70487;SDS011;57976;48.174;16.370;2023-02-27T00:05:15;7.60;;;2.80;;
70487;SDS011;57976;48.174;16.370;2023-02-27T00:07:21;7.40;;;2.40;;
70487;SDS011;57976;48.174;16.370;2023-02-27T00:09:26;6.90;;;2.40;;
70487;SDS011;57976;48.174;16.370;2023-02-27T00:11:30;7.40;;;2.50;;
70487;SDS011;57976;48.174;16.370;2023-02-27T00:13:35;7.80;;;2.60;;
70487;SDS011;57976;48.174;16.370;2023-02-27T00:15:40;7.90;;;2.60;;
70487;SDS011;57976;48.174;16.370;2023-02-27T00:17:46;8.50;;;2.90;;
70487;SDS011;57976;48.174;16.370;2023-02-27T00:19:51;7.60;;;2.50;;
70487;SDS011;57976;48.174;16.370;2023-02-27T00:21:55;7.30;;;2.80;;
70487;SDS011;57976;48.174;16.370;2023-02-27T00:24:00;7.10;;;2.70;;
70487;SDS011;57976;48.174;16.370;2023-02-27T00:26:05;7.50;;;2.60;;
70487;SDS011;57976;48.174;16.370;2023-02-27T00:28:10;7.40;;;2.60;;
70487;SDS011;57976;48.174;16.370;2023-02-27T00:30:16;7.40;;;3.00;;
70487;SDS011;57976;48.174;16.370;2023-02-27T00:32:22;7.30;;;2.90;;
70487;SDS011;57976;48.174;16.370;2023-02-27T00:34:26;7.40;;;2.90;;
70487;SDS011;57976;48.174;16.370;2023-02-27T00:36:31;7.40;;;2.60;;
70487;SDS011;57976;48.174;16.370;2023-02-27T00:38:38;7.50;;;2.70;;
70487;SDS011;57976;48.174;16.370;2023-02-27T00:40:43;7.10;;;2.60;;
70487;SDS011;57976;48.174;16.370;2023-02-27T00:42:48;7.10;;;2.60;;
70487;SDS011;57976;48.174;16.370;2023-02-27T00:44:53;6.30;;;2.30;;
70487;SDS011;57976;48.174;16.370;2023-02-27T00:46:57;7.70;;;2.50;;
70487;SDS011;57976;48.174;16.370;2023-02-27T00:49:02;7.00;;;2.40;;
70487;SDS011;57976;48.174;16.370;2023-02-27T00:51:07;6.40;;;2.40;;
70487;SDS011;57976;48.174;16.370;2023-02-27T00:53:15;6.80;;;2.30;;
70487;SDS011;57976;48.174;16.370;2023-02-27T00:55:19;8.90;;;2.70;;
70487;SDS011;57976;48.174;16.370;2023-02-27T00:57:24;7.00;;;2.20;;
70487;SDS011;57976;48.174;16.370;2023-02-27T00:59:29;7.10;;;2.60;;
70487;SDS011;57976;48.174;16.370;2023-02-27T01:01:34;7.10;;;2.50;;
70487;SDS011;57976;48.174;16.370;2023-02-27T01:03:39;6.90;;;2.40;;
70487;SDS011;57976;48.174;16.370;2023-02-27T01:05:46;7.90;;;2.40;;
70487;SDS011;57976;48.174;16.370;2023-02-27T01:07:52;6.40;;;2.40;;
70487;SDS011;57976;48.174;16.370;2023-02-27T01:09:57;7.40;;;2.50;;
70487;SDS011;57976;48.174;16.370;2023-02-27T01:12:05;6.60;;;2.40;;
70487;SDS011;57976;48.174;16.370;2023-02-27T01:14:10;7.20;;;2.40;;
70487;SDS011;57976;48.174;16.370;2023-02-27T01:16:15;7.20;;;2.50;;
70487;SDS011;57976;48.174;16.370;2023-02-27T01:18:20;7.20;;;2.30;;
70487;SDS011;57976;48.174;16.370;2023-02-27T01:20:24;8.00;;;2.50;;
70487;SDS011;57976;48.174;16.370;2023-02-27T01:22:32;8.00;;;2.40;;
70487;SDS011;57976;48.174;16.370;2023-02-27T01:24:37;7.50;;;2.30;;
70487;SDS011;57976;48.174;16.370;2023-02-27T01:26:42;7.90;;;2.30;;
70487;SDS011;57976;48.174;16.370;2023-02-27T01:28:46;7.50;;;2.70;;
70487;SDS011;57976;48.174;16.370;2023-02-27T01:30:51;7.80;;;2.30;;
70487;SDS011;57976;48.174;16.370;2023-02-27T01:32:56;6.40;;;2.10;;
70487;SDS011;57976;48.174;16.370;2023-02-27T01:35:00;7.00;;;2.30;;
70487;SDS011;57976;48.174;16.370;2023-02-27T01:37:05;6.40;;;1.90;;
70487;SDS011;57976;48.174;16.370;2023-02-27T01:39:10;7.40;;;2.30;;
70487;SDS011;57976;48.174;16.370;2023-02-27T01:41:15;7.80;;;1.80;;
70487;SDS011;57976;48.174;16.370;2023-02-27T01:43:20;7.80;;;2.10;;
70487;SDS011;57976;48.174;16.370;2023-02-27T01:45:31;7.10;;;2.40;;
70487;SDS011;57976;48.174;16.370;2023-02-27T01:47:39;7.00;;;2.10;;
70487;SDS011;57976;48.174;16.370;2023-02-27T01:49:46;8.20;;;2.40;;
70487;SDS011;57976;48.174;16.370;2023-02-27T01:51:52;6.10;;;1.70;;
70487;SDS011;57976;48.174;16.370;2023-02-27T01:53:58;7.00;;;2.00;;
70487;SDS011;57976;48.174;16.370;2023-02-27T01:56:06;5.90;;;1.60;;
70487;SDS011;57976;48.174;16.370;2023-02-27T01:58:14;6.50;;;1.90;;
70487;SDS011;57976;48.174;16.370;2023-02-27T02:00:21;7.20;;;1.90;;
70487;SDS011;57976;48.174;16.370;2023-02-27T02:02:28;7.10;;;1.90;;
70487;SDS011;57976;48.174;16.370;2023-02-27T02:04:39;6.50;;;1.80;;
70487;SDS011;57976;48.174;16.370;2023-02-27T02:06:45;6.50;;;2.20;;
70487;SDS011;57976;48.174;16.370;2023-02-27T02:08:53;6.60;;;2.00;;
70487;SDS011;57976;48.174;16.370;2023-02-27T02:11:01;6.80;;;2.10;;
70487;SDS011;57976;48.174;16.370;2023-02-27T02:13:07;6.60;;;1.90;;
70487;SDS011;57976;48.174;16.370;2023-02-27T02:15:13;6.80;;;2.00;;
70487;SDS011;57976;48.174;16.370;2023-02-27T02:17:21;7.20;;;2.10;;
70487;SDS011;57976;48.174;16.370;2023-02-27T02:22:20;7.00;;;1.60;;
70487;SDS011;57976;48.174;16.370;2023-02-27T02:27:28;6.90;;;1.90;;
